sensor_id;sensor_type;location;lat;lon;timestamp;pressure;altitude;pressure_sealevel;temperature;humidity
44659;BME280;30378;50.186;8.644;2022-09-09T00:04:29;99809.97;;;15.17;100.00
44659;BME280;30378;50.186;8.644;2022-09-09T00:07:03;99800.97;;;15.20;100.00
44659;BME280;30378;50.186;8.644;2022-09-09T00:09:57;99791.84;;;15.20;100.00
44659;BME280;30378;50.186;8.644;2022-09-09T00:15:26;99796.25;;;15.21;100.00
44659;BME280;30378;50.186;8.644;2022-09-09T00:18:21;99797.25;;;15.16;100.00
44659;BME280;30378;50.186;8.644;2022-09-09T00:21:03;99788.50;;;15.14;100.00
44659;BME280;30378;50.186;8.644;2022-09-09T00:23:47;99785.00;;;15.05;100.00
44659;BME280;30378;50.186;8.644;2022-09-09T00:31:47;99784.47;;;14.91;100.00
44659;BME280;30378;50.186;8.644;2022-09-09T00:34:23;99780.91;;;14.90;100.00
44659;BME280;30378;50.186;8.644;2022-09-09T00:36:52;99784.88;;;14.80;100.00
44659;BME280;30378;50.186;8.644;2022-09-09T00:39:42;99795.34;;;14.75;100.00
44659;BME280;30378;50.186;8.644;2022-09-09T00:42:30;99798.84;;;14.63;100.00
44659;BME280;30378;50.186;8.644;2022-09-09T00:45:41;99802.16;;;14.56;100.00
44659;BME280;30378;50.186;8.644;2022-09-09T00:48:13;99814.00;;;14.57;100.00
44659;BME280;30378;50.186;8.644;2022-09-09T00:50:54;99818.41;;;14.58;100.00
44659;BME280;30378;50.186;8.644;2022-09-09T00:56:14;99818.19;;;14.63;100.00
44659;BME280;30378;50.186;8.644;2022-09-09T01:01:43;99817.94;;;14.47;100.00
44659;BME280;30378;50.186;8.644;2022-09-09T01:04:18;99817.19;;;14.38;100.00
44659;BME280;30378;50.186;8.644;2022-09-09T01:06:57;99825.44;;;14.46;100.00
44659;BME280;30378;50.186;8.644;2022-09-09T01:09:37;99829.34;;;14.45;100.00
44659;BME280;30378;50.186;8.644;2022-09-09T01:12:14;99827.72;;;14.44;100.00
44659;BME280;30378;50.186;8.644;2022-09-09T01:14:49;99820.72;;;14.47;100.00
44659;BME280;30378;50.186;8.644;2022-09-09T01:17:36;99829.69;;;14.44;100.00
44659;BME280;30378;50.186;8.644;2022-09-09T01:20:22;99825.63;;;14.41;100.00
44659;BME280;30378;50.186;8.644;2022-09-09T01:28:32;99813.81;;;14.32;100.00
44659;BME280;30378;50.186;8.644;2022-09-09T01:31:09;99818.03;;;14.29;100.00
44659;BME280;30378;50.186;8.644;2022-09-09T01:33:42;99820.53;;;14.22;100.00
44659;BME280;30378;50.186;8.644;2022-09-09T01:38:59;99831.91;;;14.21;100.00
44659;BME280;30378;50.186;8.644;2022-09-09T01:41:27;99832.69;;;14.30;100.00
44659;BME280;30378;50.186;8.644;2022-09-09T01:44:02;99829.78;;;14.26;100.00
44659;BME280;30378;50.186;8.644;2022-09-09T01:46:33;99821.81;;;14.25;100.00
44659;BME280;30378;50.186;8.644;2022-09-09T01:49:03;99816.19;;;14.13;100.00
44659;BME280;30378;50.186;8.644;2022-09-09T01:51:32;99816.75;;;13.97;100.00
44659;BME280;30378;50.186;8.644;2022-09-09T01:54:05;99810.91;;;13.99;100.00
44659;BME280;30378;50.186;8.644;2022-09-09T01:56:39;99814.19;;;13.92;100.00
44659;BME280;30378;50.186;8.644;2022-09-09T01:59:41;99816.31;;;13.78;100.00
44659;BME280;30378;50.186;8.644;2022-09-09T02:02:14;99816.53;;;13.64;100.00
44659;BME280;30378;50.186;8.644;2022-09-09T02:07:43;99831.69;;;13.40;100.00
44659;BME280;30378;50.186;8.644;2022-09-09T02:14:16;99853.41;;;13.59;100.00
44659;BME280;30378;50.186;8.644;2022-09-09T02:17:03;99852.75;;;13.62;100.00
44659;BME280;30378;50.186;8.644;2022-09-09T02:19:57;99856.31;;;13.72;100.00
44659;BME280;30378;50.186;8.644;2022-09-09T02:22:41;99861.03;;;13.71;100.00
44659;BME280;30378;50.186;8.644;2022-09-09T02:25:15;99861.03;;;13.71;100.00
44659;BME280;30378;50.186;8.644;2022-09-09T02:27:47;99872.53;;;13.82;100.00
44659;BME280;30378;50.186;8.644;2022-09-09T02:30:18;99879.34;;;13.84;100.00
44659;BME280;30378;50.186;8.644;2022-09-09T02:32:54;99885.84;;;13.88;100.00
44659;BME280;30378;50.186;8.644;2022-09-09T02:35:41;99883.38;;;13.96;100.00
44659;BME280;30378;50.186;8.644;2022-09-09T02:38:12;99885.44;;;14.07;100.00
44659;BME280;30378;50.186;8.644;2022-09-09T02:40:46;99889.03;;;14.08;100.00
44659;BME280;30378;50.186;8.644;2022-09-09T02:43:14;99899.41;;;14.11;100.00
44659;BME280;30378;50.186;8.644;2022-09-09T02:48:36;99897.13;;;14.13;100.00
44659;BME280;30378;50.186;8.644;2022-09-09T02:56:17;99883.13;;;14.18;100.00
44659;BME280;30378;50.186;8.644;2022-09-09T02:58:47;99882.13;;;14.23;100.00
44659;BME280;30378;50.186;8.644;2022-09-09T03:01:16;99885.22;;;14.21;100.00
44659;BME280;30378;50.186;8.644;2022-09-09T03:03:44;99881.34;;;14.22;100.00
44659;BME280;30378;50.186;8.644;2022-09-09T03:06:15;99881.00;;;14.24;100.00
44659;BME280;30378;50.186;8.644;2022-09-09T03:08:48;99873.19;;;14.26;100.00
44659;BME280;30378;50.186;8.644;2022-09-09T03:11:22;99880.00;;;14.28;100.00
44659;BME280;30378;50.186;8.644;2022-09-09T03:13:50;99871.22;;;14.26;100.00
44659;BME280;30378;50.186;8.644;2022-09-09T03:16:19;99862.63;;;14.28;100.00
44659;BME280;30378;50.186;8.644;2022-09-09T03:18:50;99862.78;;;14.32;100.00
44659;BME280;30378;50.186;8.644;2022-09-09T03:21:19;99852.03;;;14.30;100.00
44659;BME280;30378;50.186;8.644;2022-09-09T03:23:47;99854.66;;;14.26;100.00
44659;BME280;30378;50.186;8.644;2022-09-09T03:26:15;99858.75;;;14.12;100.00
44659;BME280;30378;50.186;8.644;2022-09-09T03:28:45;99865.94;;;14.04;100.00
44659;BME280;30378;50.186;8.644;2022-09-09T03:31:16;99871.16;;;14.05;100.00
44659;BME280;30378;50.186;8.644;2022-09-09T03:33:44;99878.97;;;14.03;100.00
44659;BME280;30378;50.186;8.644;2022-09-09T03:36:14;99867.59;;;14.05;100.00
44659;BME280;30378;50.186;8.644;2022-09-09T03:38:42;99888.69;;;14.09;100.00
44659;BME280;30378;50.186;8.644;2022-09-09T03:41:09;99895.66;;;14.16;100.00
44659;BME280;30378;50.186;8.644;2022-09-09T03:43:38;99893.88;;;14.20;100.00
44659;BME280;30378;50.186;8.644;2022-09-09T03:46:05;99894.16;;;14.27;100.00
44659;BME280;30378;50.186;8.644;2022-09-09T03:48:32;99880.63;;;14.34;100.00
44659;BME280;30378;50.186;8.644;2022-09-09T03:51:00;99885.16;;;14.39;100.00
44659;BME280;30378;50.186;8.644;2022-09-09T03:53:30;99879.47;;;14.35;100.00
44659;BME280;30378;50.186;8.644;2022-09-09T03:55:59;99862.22;;;14.38;100.00
44659;BME280;30378;50.186;8.644;2022-09-09T03:58:29;99864.84;;;14.35;100.00
44659;BME280;30378;50.186;8.644;2022-09-09T04:01:05;99862.22;;;14.38;100.00
44659;BME280;30378;50.186;8.644;2022-09-09T04:03:36;99857.50;;;14.39;100.00
44659;BME280;30378;50.186;8.644;2022-09-09T04:06:04;99860.59;;;14.37;100.00
44659;BME280;30378;50.186;8.644;2022-09-09T04:08:33;99856.38;;;14.40;100.00
44659;BME280;30378;50.186;8.644;2022-09-09T04:11:03;99848.88;;;14.40;100.00
44659;BME280;30378;50.186;8.644;2022-09-09T04:13:35;99848.19;;;14.43;100.00
44659;BME280;30378;50.186;8.644;2022-09-09T04:16:06;99845.66;;;14.38;100.00
44659;BME280;30378;50.186;8.644;2022-09-09T04:18:35;99844.84;;;14.38;100.00
44659;BME280;30378;50.186;8.644;2022-09-09T04:21:03;99842.25;;;14.33;100.00
44659;BME280;30378;50.186;8.644;2022-09-09T04:23:32;99840.50;;;14.28;100.00
44659;BME280;30378;50.186;8.644;2022-09-09T04:26:01;99840.19;;;14.21;100.00
44659;BME280;30378;50.186;8.644;2022-09-09T04:28:31;99840.75;;;14.14;100.00
44659;BME280;30378;50.186;8.644;2022-09-09T04:31:07;99844.47;;;14.09;100.00
44659;BME280;30378;50.186;8.644;2022-09-09T04:33:37;99837.81;;;14.11;100.00
44659;BME280;30378;50.186;8.644;2022-09-09T04:36:07;99844.81;;;14.08;100.00
44659;BME280;30378;50.186;8.644;2022-09-09T04:38:35;99842.41;;;14.06;100.00
44659;BME280;30378;50.186;8.644;2022-09-09T04:41:03;99841.22;;;14.07;100.00
44659;BME280;30378;50.186;8.644;2022-09-09T04:43:33;99838.00;;;14.05;100.00
44659;BME280;30378;50.186;8.644;2022-09-09T04:46:04;99844.94;;;14.12;100.00
44659;BME280;30378;50.186;8.644;2022-09-09T04:48:32;99855.34;;;14.15;100.00
44659;BME280;30378;50.186;8.644;2022-09-09T04:51:06;99845.72;;;14.21;100.00
44659;BME280;30378;50.186;8.644;2022-09-09T04:53:35;99848.16;;;14.22;100.00
44659;BME280;30378;50.186;8.644;2022-09-09T04:58:39;99848.97;;;14.23;100.00
44659;BME280;30378;50.186;8.644;2022-09-09T05:01:11;99850.59;;;14.24;100.00
44659;BME280;30378;50.186;8.644;2022-09-09T05:03:41;99857.94;;;14.20;100.00
44659;BME280;30378;50.186;8.644;2022-09-09T05:06:14;99862.31;;;14.21;100.00
44659;BME280;30378;50.186;8.644;2022-09-09T05:08:43;99857.25;;;14.23;100.00
44659;BME280;30378;50.186;8.644;2022-09-09T05:11:21;99859.38;;;14.26;100.00
44659;BME280;30378;50.186;8.644;2022-09-09T05:13:56;99860.84;;;14.23;100.00
44659;BME280;30378;50.186;8.644;2022-09-09T05:16:24;99857.88;;;14.28;100.00
44659;BME280;30378;50.186;8.644;2022-09-09T05:18:52;99855.06;;;14.37;100.00
44659;BME280;30378;50.186;8.644;2022-09-09T05:21:21;99859.25;;;14.43;100.00
44659;BME280;30378;50.186;8.644;2022-09-09T05:23:49;99863.97;;;14.52;100.00
44659;BME280;30378;50.186;8.644;2022-09-09T05:26:20;99860.16;;;14.65;100.00
44659;BME280;30378;50.186;8.644;2022-09-09T05:28:51;99845.78;;;14.93;100.00
44659;BME280;30378;50.186;8.644;2022-09-09T05:31:19;99843.84;;;15.14;100.00
44659;BME280;30378;50.186;8.644;2022-09-09T05:33:49;99837.00;;;15.33;100.00
44659;BME280;30378;50.186;8.644;2022-09-09T05:36:19;99829.94;;;15.23;100.00
44659;BME280;30378;50.186;8.644;2022-09-09T05:38:50;99836.94;;;15.20;100.00
44659;BME280;30378;50.186;8.644;2022-09-09T05:41:18;99839.25;;;15.18;100.00
44659;BME280;30378;50.186;8.644;2022-09-09T05:43:47;99836.38;;;15.15;100.00
44659;BME280;30378;50.186;8.644;2022-09-09T05:46:18;99844.09;;;15.21;100.00
44659;BME280;30378;50.186;8.644;2022-09-09T05:48:49;99846.25;;;15.37;100.00
44659;BME280;30378;50.186;8.644;2022-09-09T05:51:25;99821.44;;;17.69;100.00
44659;BME280;30378;50.186;8.644;2022-09-09T05:53:55;99789.13;;;17.33;100.00
44659;BME280;30378;50.186;8.644;2022-09-09T05:56:29;99803.78;;;16.64;100.00
44659;BME280;30378;50.186;8.644;2022-09-09T05:58:58;99816.88;;;16.02;100.00
44659;BME280;30378;50.186;8.644;2022-09-09T06:01:37;99829.97;;;15.69;100.00
44659;BME280;30378;50.186;8.644;2022-09-09T06:04:13;99834.44;;;15.61;100.00
44659;BME280;30378;50.186;8.644;2022-09-09T06:06:41;99843.78;;;15.56;100.00
44659;BME280;30378;50.186;8.644;2022-09-09T06:09:15;99846.19;;;15.58;100.00
44659;BME280;30378;50.186;8.644;2022-09-09T06:11:43;99837.47;;;15.68;100.00
44659;BME280;30378;50.186;8.644;2022-09-09T06:14:11;99848.59;;;15.80;100.00
44659;BME280;30378;50.186;8.644;2022-09-09T06:16:39;99834.22;;;16.36;100.00
44659;BME280;30378;50.186;8.644;2022-09-09T06:19:16;99817.28;;;17.19;100.00
44659;BME280;30378;50.186;8.644;2022-09-09T06:21:44;99794.63;;;18.24;100.00
44659;BME280;30378;50.186;8.644;2022-09-09T06:24:12;99783.09;;;18.07;100.00
44659;BME280;30378;50.186;8.644;2022-09-09T06:26:41;99790.75;;;17.34;100.00
44659;BME280;30378;50.186;8.644;2022-09-09T06:29:12;99789.16;;;17.64;100.00
44659;BME280;30378;50.186;8.644;2022-09-09T06:31:41;99789.94;;;17.93;100.00
44659;BME280;30378;50.186;8.644;2022-09-09T06:34:22;99792.59;;;18.21;100.00
44659;BME280;30378;50.186;8.644;2022-09-09T06:36:54;99786.44;;;18.48;100.00
44659;BME280;30378;50.186;8.644;2022-09-09T06:39:24;99793.63;;;21.59;100.00
44659;BME280;30378;50.186;8.644;2022-09-09T06:41:54;99798.69;;;21.50;100.00
44659;BME280;30378;50.186;8.644;2022-09-09T06:44:41;99798.19;;;19.54;100.00
44659;BME280;30378;50.186;8.644;2022-09-09T06:47:12;99805.31;;;18.38;100.00
44659;BME280;30378;50.186;8.644;2022-09-09T06:49:41;99804.16;;;18.23;100.00
44659;BME280;30378;50.186;8.644;2022-09-09T06:52:13;99804.69;;;17.81;100.00
44659;BME280;30378;50.186;8.644;2022-09-09T06:54:41;99806.50;;;18.06;100.00
44659;BME280;30378;50.186;8.644;2022-09-09T06:57:08;99805.03;;;17.64;100.00
44659;BME280;30378;50.186;8.644;2022-09-09T06:59:47;99816.38;;;17.43;100.00
44659;BME280;30378;50.186;8.644;2022-09-09T07:02:15;99816.22;;;16.95;100.00
44659;BME280;30378;50.186;8.644;2022-09-09T07:04:43;99814.41;;;17.15;100.00
44659;BME280;30378;50.186;8.644;2022-09-09T07:07:11;99819.50;;;16.85;100.00
44659;BME280;30378;50.186;8.644;2022-09-09T07:09:41;99816.16;;;17.08;100.00
44659;BME280;30378;50.186;8.644;2022-09-09T07:12:08;99820.31;;;16.73;100.00
44659;BME280;30378;50.186;8.644;2022-09-09T07:14:40;99816.44;;;16.90;100.00
44659;BME280;30378;50.186;8.644;2022-09-09T07:17:09;99813.56;;;16.99;100.00
44659;BME280;30378;50.186;8.644;2022-09-09T07:19:39;99818.91;;;16.79;100.00
44659;BME280;30378;50.186;8.644;2022-09-09T07:22:08;99810.66;;;16.95;100.00
44659;BME280;30378;50.186;8.644;2022-09-09T07:24:36;99822.34;;;16.76;100.00
44659;BME280;30378;50.186;8.644;2022-09-09T07:27:04;99821.56;;;16.76;100.00
44659;BME280;30378;50.186;8.644;2022-09-09T07:29:34;99828.03;;;16.80;100.00
44659;BME280;30378;50.186;8.644;2022-09-09T07:32:02;99830.03;;;16.67;100.00
44659;BME280;30378;50.186;8.644;2022-09-09T07:34:35;99836.25;;;16.64;100.00
44659;BME280;30378;50.186;8.644;2022-09-09T07:37:02;99833.72;;;16.83;100.00
44659;BME280;30378;50.186;8.644;2022-09-09T07:39:31;99828.72;;;16.89;100.00
44659;BME280;30378;50.186;8.644;2022-09-09T07:41:58;99821.16;;;17.02;100.00
44659;BME280;30378;50.186;8.644;2022-09-09T07:44:26;99820.75;;;17.16;100.00
44659;BME280;30378;50.186;8.644;2022-09-09T07:47:02;99826.38;;;17.32;100.00
44659;BME280;30378;50.186;8.644;2022-09-09T07:49:37;99816.44;;;17.31;100.00
44659;BME280;30378;50.186;8.644;2022-09-09T07:52:06;99824.06;;;17.34;100.00
44659;BME280;30378;50.186;8.644;2022-09-09T07:54:42;99824.97;;;17.38;100.00
44659;BME280;30378;50.186;8.644;2022-09-09T07:57:10;99831.91;;;17.32;100.00
44659;BME280;30378;50.186;8.644;2022-09-09T07:59:37;99834.06;;;17.22;100.00
44659;BME280;30378;50.186;8.644;2022-09-09T08:02:05;99842.19;;;17.59;100.00
44659;BME280;30378;50.186;8.644;2022-09-09T08:04:34;99845.94;;;17.79;100.00
44659;BME280;30378;50.186;8.644;2022-09-09T08:07:02;99848.41;;;17.69;100.00
44659;BME280;30378;50.186;8.644;2022-09-09T08:09:36;99856.72;;;17.97;100.00
44659;BME280;30378;50.186;8.644;2022-09-09T08:12:19;99858.66;;;17.80;100.00
44659;BME280;30378;50.186;8.644;2022-09-09T08:14:47;99865.56;;;17.42;100.00
44659;BME280;30378;50.186;8.644;2022-09-09T08:17:15;99860.88;;;17.31;100.00
44659;BME280;30378;50.186;8.644;2022-09-09T08:19:43;99852.94;;;17.45;100.00
44659;BME280;30378;50.186;8.644;2022-09-09T08:22:17;99862.72;;;17.55;100.00
44659;BME280;30378;50.186;8.644;2022-09-09T08:24:44;99863.41;;;17.80;100.00
44659;BME280;30378;50.186;8.644;2022-09-09T08:27:12;99859.25;;;18.02;100.00
44659;BME280;30378;50.186;8.644;2022-09-09T08:29:39;99862.91;;;17.90;100.00
44659;BME280;30378;50.186;8.644;2022-09-09T08:32:08;99852.88;;;18.01;100.00
44659;BME280;30378;50.186;8.644;2022-09-09T08:34:37;99850.59;;;18.55;100.00
44659;BME280;30378;50.186;8.644;2022-09-09T08:37:09;99853.19;;;18.63;100.00
44659;BME280;30378;50.186;8.644;2022-09-09T08:39:39;99853.47;;;18.58;100.00
44659;BME280;30378;50.186;8.644;2022-09-09T08:42:35;99851.94;;;18.61;100.00
44659;BME280;30378;50.186;8.644;2022-09-09T08:45:25;99855.09;;;18.43;100.00
44659;BME280;30378;50.186;8.644;2022-09-09T08:50:50;99859.06;;;17.67;100.00
44659;BME280;30378;50.186;8.644;2022-09-09T08:53:38;99844.47;;;17.70;100.00
44659;BME280;30378;50.186;8.644;2022-09-09T08:56:12;99846.63;;;17.76;100.00
44659;BME280;30378;50.186;8.644;2022-09-09T08:58:52;99847.25;;;17.70;100.00
44659;BME280;30378;50.186;8.644;2022-09-09T09:01:44;99839.25;;;17.96;100.00
44659;BME280;30378;50.186;8.644;2022-09-09T09:04:56;99834.41;;;18.09;100.00
44659;BME280;30378;50.186;8.644;2022-09-09T09:12:58;99822.28;;;20.09;100.00
44659;BME280;30378;50.186;8.644;2022-09-09T09:15:35;99814.41;;;19.29;100.00
44659;BME280;30378;50.186;8.644;2022-09-09T09:18:05;99808.88;;;18.55;100.00
44659;BME280;30378;50.186;8.644;2022-09-09T09:20:46;99817.38;;;18.27;100.00
44659;BME280;30378;50.186;8.644;2022-09-09T09:23:22;99816.59;;;18.46;100.00
44659;BME280;30378;50.186;8.644;2022-09-09T09:25:56;99821.19;;;18.22;100.00
44659;BME280;30378;50.186;8.644;2022-09-09T09:28:30;99814.31;;;18.16;100.00
44659;BME280;30378;50.186;8.644;2022-09-09T09:31:09;99835.06;;;18.54;100.00
44659;BME280;30378;50.186;8.644;2022-09-09T09:36:08;99837.34;;;18.83;100.00
44659;BME280;30378;50.186;8.644;2022-09-09T09:38:39;99839.56;;;19.13;100.00
44659;BME280;30378;50.186;8.644;2022-09-09T09:41:40;99837.09;;;19.28;100.00
44659;BME280;30378;50.186;8.644;2022-09-09T09:44:30;99829.59;;;19.51;100.00
44659;BME280;30378;50.186;8.644;2022-09-09T09:47:19;99819.94;;;19.45;100.00
44659;BME280;30378;50.186;8.644;2022-09-09T09:49:59;99821.81;;;19.41;100.00
44659;BME280;30378;50.186;8.644;2022-09-09T09:52:32;99824.06;;;19.97;100.00
44659;BME280;30378;50.186;8.644;2022-09-09T09:55:03;99825.81;;;19.20;100.00
44659;BME280;30378;50.186;8.644;2022-09-09T09:57:34;99813.78;;;18.61;100.00
44659;BME280;30378;50.186;8.644;2022-09-09T10:02:53;99841.25;;;18.63;100.00
44659;BME280;30378;50.186;8.644;2022-09-09T10:05:28;99831.75;;;18.48;100.00
44659;BME280;30378;50.186;8.644;2022-09-09T10:08:10;99839.88;;;19.28;100.00
44659;BME280;30378;50.186;8.644;2022-09-09T10:14:08;99841.13;;;19.30;100.00
44659;BME280;30378;50.186;8.644;2022-09-09T10:17:04;99845.03;;;18.55;100.00
44659;BME280;30378;50.186;8.644;2022-09-09T10:19:37;99850.72;;;18.11;100.00
44659;BME280;30378;50.186;8.644;2022-09-09T10:22:39;99867.97;;;17.72;100.00
44659;BME280;30378;50.186;8.644;2022-09-09T10:28:18;99870.50;;;17.21;100.00
44659;BME280;30378;50.186;8.644;2022-09-09T10:31:14;99889.88;;;17.33;100.00
44659;BME280;30378;50.186;8.644;2022-09-09T10:36:47;99910.50;;;17.32;100.00
44659;BME280;30378;50.186;8.644;2022-09-09T10:42:16;99894.38;;;16.97;100.00
44659;BME280;30378;50.186;8.644;2022-09-09T10:47:50;99901.00;;;16.93;100.00
44659;BME280;30378;50.186;8.644;2022-09-09T10:56:13;99892.34;;;16.57;100.00
44659;BME280;30378;50.186;8.644;2022-09-09T10:58:55;99873.47;;;16.88;100.00
44659;BME280;30378;50.186;8.644;2022-09-09T11:01:45;99856.72;;;17.24;100.00
44659;BME280;30378;50.186;8.644;2022-09-09T11:04:35;99850.44;;;18.00;100.00
44659;BME280;30378;50.186;8.644;2022-09-09T11:07:09;99827.84;;;18.33;100.00
44659;BME280;30378;50.186;8.644;2022-09-09T11:09:42;99814.06;;;19.31;100.00
44659;BME280;30378;50.186;8.644;2022-09-09T11:12:17;99805.13;;;20.33;100.00
44659;BME280;30378;50.186;8.644;2022-09-09T11:14:51;99788.94;;;20.43;100.00
44659;BME280;30378;50.186;8.644;2022-09-09T11:17:26;99792.63;;;20.50;100.00
44659;BME280;30378;50.186;8.644;2022-09-09T11:19:57;99784.59;;;19.95;100.00
44659;BME280;30378;50.186;8.644;2022-09-09T11:22:33;99791.34;;;19.94;100.00
44659;BME280;30378;50.186;8.644;2022-09-09T11:25:33;99779.72;;;20.95;100.00
44659;BME280;30378;50.186;8.644;2022-09-09T11:36:28;99785.25;;;23.69;100.00
44659;BME280;30378;50.186;8.644;2022-09-09T11:41:49;99786.09;;;22.71;100.00
44659;BME280;30378;50.186;8.644;2022-09-09T11:44:29;99796.00;;;22.06;100.00
44659;BME280;30378;50.186;8.644;2022-09-09T11:46:57;99790.31;;;23.13;100.00
44659;BME280;30378;50.186;8.644;2022-09-09T11:49:30;99803.19;;;23.32;100.00
44659;BME280;30378;50.186;8.644;2022-09-09T11:52:18;99797.66;;;22.10;100.00
44659;BME280;30378;50.186;8.644;2022-09-09T11:54:49;99791.00;;;21.77;100.00
44659;BME280;30378;50.186;8.644;2022-09-09T11:57:27;99791.59;;;21.23;100.00
44659;BME280;30378;50.186;8.644;2022-09-09T11:59:58;99793.38;;;21.04;100.00
44659;BME280;30378;50.186;8.644;2022-09-09T12:02:27;99771.78;;;21.38;100.00
44659;BME280;30378;50.186;8.644;2022-09-09T12:05:02;99774.22;;;21.40;100.00
44659;BME280;30378;50.186;8.644;2022-09-09T12:12:36;99794.78;;;20.91;100.00
44659;BME280;30378;50.186;8.644;2022-09-09T12:17:46;99791.34;;;20.71;100.00
44659;BME280;30378;50.186;8.644;2022-09-09T12:20:16;99791.50;;;20.28;100.00
44659;BME280;30378;50.186;8.644;2022-09-09T12:25:49;99787.81;;;19.97;100.00
44659;BME280;30378;50.186;8.644;2022-09-09T12:28:18;99797.97;;;19.63;100.00
44659;BME280;30378;50.186;8.644;2022-09-09T12:31:00;99799.19;;;19.85;100.00
44659;BME280;30378;50.186;8.644;2022-09-09T12:33:36;99784.53;;;19.92;100.00
44659;BME280;30378;50.186;8.644;2022-09-09T12:36:05;99783.44;;;20.23;100.00
44659;BME280;30378;50.186;8.644;2022-09-09T12:38:43;99770.72;;;20.26;100.00
44659;BME280;30378;50.186;8.644;2022-09-09T12:41:27;99770.56;;;20.15;100.00
44659;BME280;30378;50.186;8.644;2022-09-09T12:44:05;99772.56;;;20.14;100.00
44659;BME280;30378;50.186;8.644;2022-09-09T12:46:36;99757.63;;;20.30;100.00
44659;BME280;30378;50.186;8.644;2022-09-09T12:49:05;99761.19;;;20.27;100.00
44659;BME280;30378;50.186;8.644;2022-09-09T12:51:33;99779.75;;;19.92;100.00
44659;BME280;30378;50.186;8.644;2022-09-09T12:54:01;99802.16;;;19.53;100.00
44659;BME280;30378;50.186;8.644;2022-09-09T12:56:31;99814.16;;;18.44;100.00
44659;BME280;30378;50.186;8.644;2022-09-09T12:58:59;99807.97;;;17.55;100.00
44659;BME280;30378;50.186;8.644;2022-09-09T13:01:29;99796.59;;;17.16;100.00
44659;BME280;30378;50.186;8.644;2022-09-09T13:03:58;99792.97;;;17.28;100.00
44659;BME280;30378;50.186;8.644;2022-09-09T13:06:32;99797.94;;;17.67;100.00
44659;BME280;30378;50.186;8.644;2022-09-09T13:09:03;99800.22;;;18.60;100.00
44659;BME280;30378;50.186;8.644;2022-09-09T13:11:41;99795.47;;;18.96;100.00
44659;BME280;30378;50.186;8.644;2022-09-09T13:14:19;99792.06;;;19.68;100.00
44659;BME280;30378;50.186;8.644;2022-09-09T13:17:00;99778.72;;;20.27;100.00
44659;BME280;30378;50.186;8.644;2022-09-09T13:19:32;99771.66;;;20.90;100.00
44659;BME280;30378;50.186;8.644;2022-09-09T13:22:14;99777.38;;;21.01;100.00
44659;BME280;30378;50.186;8.644;2022-09-09T13:24:46;99776.03;;;21.22;100.00
44659;BME280;30378;50.186;8.644;2022-09-09T13:27:51;99780.22;;;21.79;100.00
44659;BME280;30378;50.186;8.644;2022-09-09T13:30:54;99775.09;;;21.44;100.00
44659;BME280;30378;50.186;8.644;2022-09-09T13:33:20;99769.69;;;21.28;100.00
44659;BME280;30378;50.186;8.644;2022-09-09T13:35:58;99762.00;;;21.18;100.00
44659;BME280;30378;50.186;8.644;2022-09-09T13:38:29;99778.13;;;20.98;100.00
44659;BME280;30378;50.186;8.644;2022-09-09T13:41:03;99771.53;;;20.79;100.00
44659;BME280;30378;50.186;8.644;2022-09-09T13:43:43;99761.72;;;21.30;100.00
44659;BME280;30378;50.186;8.644;2022-09-09T13:46:31;99755.91;;;21.09;100.00
44659;BME280;30378;50.186;8.644;2022-09-09T13:49:22;99754.81;;;21.17;100.00
44659;BME280;30378;50.186;8.644;2022-09-09T13:51:50;99772.25;;;20.46;100.00
44659;BME280;30378;50.186;8.644;2022-09-09T13:54:20;99765.81;;;20.42;100.00
44659;BME280;30378;50.186;8.644;2022-09-09T13:56:47;99760.38;;;20.53;100.00
44659;BME280;30378;50.186;8.644;2022-09-09T13:59:18;99763.66;;;21.56;100.00
44659;BME280;30378;50.186;8.644;2022-09-09T14:01:47;99766.16;;;21.69;100.00
44659;BME280;30378;50.186;8.644;2022-09-09T14:04:15;99768.69;;;21.10;100.00
44659;BME280;30378;50.186;8.644;2022-09-09T14:06:44;99760.25;;;21.40;100.00
44659;BME280;30378;50.186;8.644;2022-09-09T14:09:13;99781.22;;;20.89;100.00
44659;BME280;30378;50.186;8.644;2022-09-09T14:11:42;99780.34;;;20.85;100.00
44659;BME280;30378;50.186;8.644;2022-09-09T14:14:09;99776.38;;;20.56;100.00
44659;BME280;30378;50.186;8.644;2022-09-09T14:16:37;99782.38;;;20.05;100.00
44659;BME280;30378;50.186;8.644;2022-09-09T14:19:04;99789.97;;;19.61;100.00
44659;BME280;30378;50.186;8.644;2022-09-09T14:21:31;99787.94;;;19.39;100.00
44659;BME280;30378;50.186;8.644;2022-09-09T14:23:59;99780.06;;;19.21;100.00
44659;BME280;30378;50.186;8.644;2022-09-09T14:26:26;99782.81;;;18.63;100.00
44659;BME280;30378;50.186;8.644;2022-09-09T14:28:56;99792.13;;;18.71;100.00
44659;BME280;30378;50.186;8.644;2022-09-09T14:31:30;99782.22;;;18.73;100.00
44659;BME280;30378;50.186;8.644;2022-09-09T14:33:58;99775.88;;;18.73;100.00
44659;BME280;30378;50.186;8.644;2022-09-09T14:36:25;99781.41;;;18.89;100.00
44659;BME280;30378;50.186;8.644;2022-09-09T14:38:52;99776.56;;;19.05;100.00
44659;BME280;30378;50.186;8.644;2022-09-09T14:41:20;99784.63;;;18.91;100.00
44659;BME280;30378;50.186;8.644;2022-09-09T14:43:49;99772.28;;;19.11;100.00
44659;BME280;30378;50.186;8.644;2022-09-09T14:46:18;99770.53;;;19.03;100.00
44659;BME280;30378;50.186;8.644;2022-09-09T14:48:46;99772.81;;;18.78;100.00
44659;BME280;30378;50.186;8.644;2022-09-09T14:51:22;99754.72;;;18.88;100.00
44659;BME280;30378;50.186;8.644;2022-09-09T14:53:54;99757.69;;;18.79;100.00
44659;BME280;30378;50.186;8.644;2022-09-09T14:56:24;99750.59;;;19.20;100.00
44659;BME280;30378;50.186;8.644;2022-09-09T14:58:56;99752.44;;;19.78;100.00
44659;BME280;30378;50.186;8.644;2022-09-09T15:01:24;99749.59;;;20.25;100.00
44659;BME280;30378;50.186;8.644;2022-09-09T15:03:58;99746.63;;;20.14;100.00